sensor_id;sensor_type;location;lat;lon;timestamp;P1;durP1;ratioP1;P2;durP2;ratioP2
36751;SDS011;22718;49.494;7.036;2024-03-07T00:00:04;38.28;;;18.95;;
36751;SDS011;22718;49.494;7.036;2024-03-07T00:02:42;41.17;;;20.33;;
36751;SDS011;22718;49.494;7.036;2024-03-07T00:05:09;38.65;;;19.50;;
36751;SDS011;22718;49.494;7.036;2024-03-07T00:07:36;38.08;;;20.65;;
36751;SDS011;22718;49.494;7.036;2024-03-07T00:10:02;40.17;;;20.33;;
36751;SDS011;22718;49.494;7.036;2024-03-07T00:12:34;40.67;;;21.08;;
36751;SDS011;22718;49.494;7.036;2024-03-07T00:15:00;45.83;;;21.67;;
36751;SDS011;22718;49.494;7.036;2024-03-07T00:17:28;37.20;;;20.17;;
36751;SDS011;22718;49.494;7.036;2024-03-07T00:19:57;41.70;;;22.38;;
36751;SDS011;22718;49.494;7.036;2024-03-07T00:22:23;37.45;;;20.42;;
36751;SDS011;22718;49.494;7.036;2024-03-07T00:24:52;40.22;;;20.52;;
36751;SDS011;22718;49.494;7.036;2024-03-07T00:27:18;40.97;;;22.02;;
36751;SDS011;22718;49.494;7.036;2024-03-07T00:29:45;42.22;;;21.38;;
36751;SDS011;22718;49.494;7.036;2024-03-07T00:32:17;41.72;;;21.13;;
36751;SDS011;22718;49.494;7.036;2024-03-07T00:34:47;41.90;;;21.98;;
36751;SDS011;22718;49.494;7.036;2024-03-07T00:37:13;37.80;;;20.75;;
36751;SDS011;22718;49.494;7.036;2024-03-07T00:39:42;34.17;;;18.92;;
36751;SDS011;22718;49.494;7.036;2024-03-07T00:42:08;44.38;;;21.45;;
36751;SDS011;22718;49.494;7.036;2024-03-07T00:44:36;39.97;;;21.40;;
36751;SDS011;22718;49.494;7.036;2024-03-07T00:47:02;41.05;;;21.38;;
36751;SDS011;22718;49.494;7.036;2024-03-07T00:49:28;40.75;;;22.60;;
36751;SDS011;22718;49.494;7.036;2024-03-07T00:51:55;38.28;;;21.48;;
36751;SDS011;22718;49.494;7.036;2024-03-07T00:54:20;40.38;;;20.73;;
36751;SDS011;22718;49.494;7.036;2024-03-07T00:56:46;41.22;;;21.05;;
36751;SDS011;22718;49.494;7.036;2024-03-07T00:59:17;38.33;;;21.98;;
36751;SDS011;22718;49.494;7.036;2024-03-07T01:04:14;39.72;;;21.75;;
36751;SDS011;22718;49.494;7.036;2024-03-07T01:06:39;39.42;;;21.02;;
36751;SDS011;22718;49.494;7.036;2024-03-07T01:09:06;38.47;;;21.70;;
36751;SDS011;22718;49.494;7.036;2024-03-07T01:11:39;40.72;;;21.80;;
36751;SDS011;22718;49.494;7.036;2024-03-07T01:14:05;41.78;;;21.60;;
36751;SDS011;22718;49.494;7.036;2024-03-07T01:16:31;39.95;;;20.48;;
36751;SDS011;22718;49.494;7.036;2024-03-07T01:18:56;41.58;;;20.77;;
36751;SDS011;22718;49.494;7.036;2024-03-07T01:21:23;46.20;;;23.05;;
36751;SDS011;22718;49.494;7.036;2024-03-07T01:23:49;42.88;;;22.23;;
36751;SDS011;22718;49.494;7.036;2024-03-07T01:26:14;39.17;;;21.33;;
36751;SDS011;22718;49.494;7.036;2024-03-07T01:28:40;39.38;;;21.27;;
36751;SDS011;22718;49.494;7.036;2024-03-07T01:31:06;39.03;;;21.17;;
36751;SDS011;22718;49.494;7.036;2024-03-07T01:33:33;40.28;;;20.92;;
36751;SDS011;22718;49.494;7.036;2024-03-07T01:35:58;40.28;;;22.63;;
36751;SDS011;22718;49.494;7.036;2024-03-07T01:38:24;38.08;;;20.45;;
36751;SDS011;22718;49.494;7.036;2024-03-07T01:40:50;45.03;;;22.55;;
36751;SDS011;22718;49.494;7.036;2024-03-07T01:43:16;41.25;;;22.23;;
36751;SDS011;22718;49.494;7.036;2024-03-07T01:45:41;47.90;;;22.60;;
36751;SDS011;22718;49.494;7.036;2024-03-07T01:48:09;44.10;;;22.48;;
36751;SDS011;22718;49.494;7.036;2024-03-07T01:50:39;39.60;;;20.08;;
36751;SDS011;22718;49.494;7.036;2024-03-07T01:53:05;41.10;;;22.55;;
36751;SDS011;22718;49.494;7.036;2024-03-07T01:55:35;43.78;;;22.60;;
36751;SDS011;22718;49.494;7.036;2024-03-07T01:58:02;38.83;;;21.52;;
36751;SDS011;22718;49.494;7.036;2024-03-07T02:00:29;42.70;;;21.90;;
36751;SDS011;22718;49.494;7.036;2024-03-07T02:02:56;44.03;;;22.10;;
36751;SDS011;22718;49.494;7.036;2024-03-07T02:05:22;42.58;;;22.13;;
36751;SDS011;22718;49.494;7.036;2024-03-07T02:07:49;43.33;;;22.80;;
36751;SDS011;22718;49.494;7.036;2024-03-07T02:10:17;41.03;;;21.98;;
36751;SDS011;22718;49.494;7.036;2024-03-07T02:12:43;48.20;;;23.30;;
36751;SDS011;22718;49.494;7.036;2024-03-07T02:15:10;42.20;;;23.05;;
36751;SDS011;22718;49.494;7.036;2024-03-07T02:17:36;43.38;;;21.60;;
36751;SDS011;22718;49.494;7.036;2024-03-07T02:20:02;44.95;;;24.25;;
36751;SDS011;22718;49.494;7.036;2024-03-07T02:22:33;43.70;;;21.02;;
36751;SDS011;22718;49.494;7.036;2024-03-07T02:24:58;43.47;;;21.83;;
36751;SDS011;22718;49.494;7.036;2024-03-07T02:27:24;40.88;;;22.42;;
36751;SDS011;22718;49.494;7.036;2024-03-07T02:29:49;42.65;;;20.92;;
36751;SDS011;22718;49.494;7.036;2024-03-07T02:32:16;41.45;;;20.02;;
36751;SDS011;22718;49.494;7.036;2024-03-07T02:34:42;41.22;;;22.10;;
36751;SDS011;22718;49.494;7.036;2024-03-07T02:37:08;44.10;;;23.52;;
36751;SDS011;22718;49.494;7.036;2024-03-07T02:39:37;44.00;;;23.95;;
36751;SDS011;22718;49.494;7.036;2024-03-07T02:42:02;37.28;;;21.38;;
36751;SDS011;22718;49.494;7.036;2024-03-07T02:44:28;41.30;;;21.73;;
36751;SDS011;22718;49.494;7.036;2024-03-07T02:46:55;43.63;;;22.95;;
36751;SDS011;22718;49.494;7.036;2024-03-07T02:49:20;52.60;;;23.55;;
36751;SDS011;22718;49.494;7.036;2024-03-07T02:51:46;50.70;;;23.23;;
36751;SDS011;22718;49.494;7.036;2024-03-07T02:54:12;45.95;;;22.33;;
36751;SDS011;22718;49.494;7.036;2024-03-07T02:56:38;40.47;;;20.58;;
36751;SDS011;22718;49.494;7.036;2024-03-07T02:59:03;41.00;;;22.05;;
36751;SDS011;22718;49.494;7.036;2024-03-07T03:01:29;39.88;;;21.23;;
36751;SDS011;22718;49.494;7.036;2024-03-07T03:03:55;37.10;;;20.95;;
36751;SDS011;22718;49.494;7.036;2024-03-07T03:06:21;42.72;;;23.20;;
36751;SDS011;22718;49.494;7.036;2024-03-07T03:08:46;37.33;;;19.60;;
36751;SDS011;22718;49.494;7.036;2024-03-07T03:11:12;47.25;;;24.10;;
36751;SDS011;22718;49.494;7.036;2024-03-07T03:13:40;42.70;;;21.73;;
36751;SDS011;22718;49.494;7.036;2024-03-07T03:16:06;44.20;;;22.23;;
36751;SDS011;22718;49.494;7.036;2024-03-07T03:18:35;38.70;;;22.67;;
36751;SDS011;22718;49.494;7.036;2024-03-07T03:21:01;42.33;;;22.85;;
36751;SDS011;22718;49.494;7.036;2024-03-07T03:23:27;44.35;;;22.63;;
36751;SDS011;22718;49.494;7.036;2024-03-07T03:25:53;45.30;;;22.75;;
36751;SDS011;22718;49.494;7.036;2024-03-07T03:28:20;43.58;;;23.05;;
36751;SDS011;22718;49.494;7.036;2024-03-07T03:30:46;48.33;;;24.50;;
36751;SDS011;22718;49.494;7.036;2024-03-07T03:33:12;46.92;;;24.30;;
36751;SDS011;22718;49.494;7.036;2024-03-07T03:35:38;40.25;;;20.92;;
36751;SDS011;22718;49.494;7.036;2024-03-07T03:38:05;40.67;;;21.23;;
36751;SDS011;22718;49.494;7.036;2024-03-07T03:40:31;43.92;;;22.38;;
36751;SDS011;22718;49.494;7.036;2024-03-07T03:42:57;38.75;;;21.17;;
36751;SDS011;22718;49.494;7.036;2024-03-07T03:45:23;44.38;;;22.05;;
36751;SDS011;22718;49.494;7.036;2024-03-07T03:47:50;43.38;;;22.10;;
36751;SDS011;22718;49.494;7.036;2024-03-07T03:50:16;45.53;;;23.25;;
36751;SDS011;22718;49.494;7.036;2024-03-07T03:52:42;43.03;;;22.55;;
36751;SDS011;22718;49.494;7.036;2024-03-07T03:55:08;45.00;;;22.55;;
36751;SDS011;22718;49.494;7.036;2024-03-07T03:57:34;43.63;;;21.48;;
36751;SDS011;22718;49.494;7.036;2024-03-07T04:00:01;44.08;;;22.98;;
36751;SDS011;22718;49.494;7.036;2024-03-07T04:02:34;40.70;;;22.13;;
36751;SDS011;22718;49.494;7.036;2024-03-07T04:05:02;44.83;;;23.35;;
36751;SDS011;22718;49.494;7.036;2024-03-07T04:07:29;40.42;;;22.02;;
36751;SDS011;22718;49.494;7.036;2024-03-07T04:09:56;44.70;;;23.15;;
36751;SDS011;22718;49.494;7.036;2024-03-07T04:12:23;43.88;;;22.30;;
36751;SDS011;22718;49.494;7.036;2024-03-07T04:14:51;45.30;;;20.33;;
36751;SDS011;22718;49.494;7.036;2024-03-07T04:17:19;45.83;;;24.67;;
36751;SDS011;22718;49.494;7.036;2024-03-07T04:19:46;43.88;;;22.00;;
36751;SDS011;22718;49.494;7.036;2024-03-07T04:22:11;43.15;;;21.88;;
36751;SDS011;22718;49.494;7.036;2024-03-07T04:24:37;45.05;;;24.42;;
36751;SDS011;22718;49.494;7.036;2024-03-07T04:27:03;47.25;;;24.40;;
36751;SDS011;22718;49.494;7.036;2024-03-07T04:29:33;43.45;;;21.95;;
36751;SDS011;22718;49.494;7.036;2024-03-07T04:32:00;44.92;;;21.92;;
36751;SDS011;22718;49.494;7.036;2024-03-07T04:34:27;45.92;;;22.50;;
36751;SDS011;22718;49.494;7.036;2024-03-07T04:36:56;45.35;;;24.50;;
36751;SDS011;22718;49.494;7.036;2024-03-07T04:39:23;43.92;;;22.65;;
36751;SDS011;22718;49.494;7.036;2024-03-07T04:41:53;52.93;;;23.00;;
36751;SDS011;22718;49.494;7.036;2024-03-07T04:44:19;46.08;;;23.88;;
36751;SDS011;22718;49.494;7.036;2024-03-07T04:46:47;47.40;;;22.90;;
36751;SDS011;22718;49.494;7.036;2024-03-07T04:49:14;45.85;;;24.30;;
36751;SDS011;22718;49.494;7.036;2024-03-07T04:51:40;50.45;;;25.75;;
36751;SDS011;22718;49.494;7.036;2024-03-07T04:54:06;52.20;;;23.25;;
36751;SDS011;22718;49.494;7.036;2024-03-07T04:56:31;52.45;;;25.52;;
36751;SDS011;22718;49.494;7.036;2024-03-07T04:58:57;48.08;;;24.60;;
36751;SDS011;22718;49.494;7.036;2024-03-07T05:01:23;49.20;;;25.25;;
36751;SDS011;22718;49.494;7.036;2024-03-07T05:03:50;49.00;;;23.13;;
36751;SDS011;22718;49.494;7.036;2024-03-07T05:06:17;52.13;;;24.60;;
36751;SDS011;22718;49.494;7.036;2024-03-07T05:08:43;51.78;;;25.55;;
36751;SDS011;22718;49.494;7.036;2024-03-07T05:11:09;51.50;;;26.38;;
36751;SDS011;22718;49.494;7.036;2024-03-07T05:13:35;49.15;;;25.38;;
36751;SDS011;22718;49.494;7.036;2024-03-07T05:16:02;51.78;;;27.23;;
36751;SDS011;22718;49.494;7.036;2024-03-07T05:18:27;48.78;;;24.58;;
36751;SDS011;22718;49.494;7.036;2024-03-07T05:20:54;58.00;;;27.15;;
36751;SDS011;22718;49.494;7.036;2024-03-07T05:23:20;51.15;;;25.85;;
36751;SDS011;22718;49.494;7.036;2024-03-07T05:30:49;54.40;;;28.25;;
36751;SDS011;22718;49.494;7.036;2024-03-07T05:33:15;53.85;;;25.67;;
36751;SDS011;22718;49.494;7.036;2024-03-07T05:35:42;52.30;;;25.70;;
36751;SDS011;22718;49.494;7.036;2024-03-07T05:38:08;54.63;;;25.38;;
36751;SDS011;22718;49.494;7.036;2024-03-07T05:40:34;52.97;;;27.40;;
36751;SDS011;22718;49.494;7.036;2024-03-07T05:42:59;56.60;;;27.60;;
36751;SDS011;22718;49.494;7.036;2024-03-07T05:45:26;51.90;;;26.67;;
36751;SDS011;22718;49.494;7.036;2024-03-07T05:47:52;59.90;;;27.83;;
36751;SDS011;22718;49.494;7.036;2024-03-07T05:50:17;56.50;;;27.92;;
36751;SDS011;22718;49.494;7.036;2024-03-07T05:52:43;54.88;;;27.23;;
36751;SDS011;22718;49.494;7.036;2024-03-07T05:55:09;58.78;;;28.10;;
36751;SDS011;22718;49.494;7.036;2024-03-07T05:57:36;57.05;;;27.33;;
36751;SDS011;22718;49.494;7.036;2024-03-07T06:00:01;58.80;;;28.80;;
36751;SDS011;22718;49.494;7.036;2024-03-07T06:02:34;58.50;;;28.50;;
36751;SDS011;22718;49.494;7.036;2024-03-07T06:05:00;53.63;;;26.75;;
36751;SDS011;22718;49.494;7.036;2024-03-07T06:07:29;51.13;;;25.67;;
36751;SDS011;22718;49.494;7.036;2024-03-07T06:12:25;61.13;;;27.58;;
36751;SDS011;22718;49.494;7.036;2024-03-07T06:14:51;56.58;;;25.88;;
36751;SDS011;22718;49.494;7.036;2024-03-07T06:17:16;54.63;;;27.05;;
36751;SDS011;22718;49.494;7.036;2024-03-07T06:19:46;59.30;;;26.88;;
36751;SDS011;22718;49.494;7.036;2024-03-07T06:22:13;52.20;;;24.63;;
36751;SDS011;22718;49.494;7.036;2024-03-07T06:24:38;53.33;;;27.48;;
36751;SDS011;22718;49.494;7.036;2024-03-07T06:27:05;57.90;;;27.20;;
36751;SDS011;22718;49.494;7.036;2024-03-07T06:29:40;54.45;;;26.13;;
36751;SDS011;22718;49.494;7.036;2024-03-07T06:32:06;59.97;;;27.05;;
36751;SDS011;22718;49.494;7.036;2024-03-07T06:34:32;55.33;;;26.55;;
36751;SDS011;22718;49.494;7.036;2024-03-07T06:36:58;52.50;;;26.38;;
36751;SDS011;22718;49.494;7.036;2024-03-07T06:39:23;59.67;;;27.40;;
36751;SDS011;22718;49.494;7.036;2024-03-07T06:41:50;48.60;;;25.52;;
36751;SDS011;22718;49.494;7.036;2024-03-07T06:44:15;54.38;;;27.23;;
36751;SDS011;22718;49.494;7.036;2024-03-07T06:46:42;51.33;;;25.30;;
36751;SDS011;22718;49.494;7.036;2024-03-07T06:49:10;52.38;;;24.85;;
36751;SDS011;22718;49.494;7.036;2024-03-07T06:51:35;51.55;;;25.30;;
36751;SDS011;22718;49.494;7.036;2024-03-07T06:54:01;54.63;;;25.20;;
36751;SDS011;22718;49.494;7.036;2024-03-07T06:56:27;44.70;;;23.70;;
36751;SDS011;22718;49.494;7.036;2024-03-07T06:58:52;60.95;;;26.63;;
36751;SDS011;22718;49.494;7.036;2024-03-07T07:01:18;48.30;;;24.25;;
36751;SDS011;22718;49.494;7.036;2024-03-07T07:03:44;54.13;;;27.55;;
36751;SDS011;22718;49.494;7.036;2024-03-07T07:06:10;49.08;;;25.77;;
36751;SDS011;22718;49.494;7.036;2024-03-07T07:08:36;47.25;;;24.15;;
36751;SDS011;22718;49.494;7.036;2024-03-07T07:11:03;44.67;;;23.38;;
36751;SDS011;22718;49.494;7.036;2024-03-07T07:13:29;47.13;;;23.80;;
36751;SDS011;22718;49.494;7.036;2024-03-07T07:15:55;40.67;;;20.77;;
36751;SDS011;22718;49.494;7.036;2024-03-07T07:18:21;46.00;;;23.23;;
36751;SDS011;22718;49.494;7.036;2024-03-07T07:20:48;41.85;;;22.38;;
36751;SDS011;22718;49.494;7.036;2024-03-07T07:23:16;44.05;;;21.92;;
36751;SDS011;22718;49.494;7.036;2024-03-07T07:25:42;50.25;;;22.48;;
36751;SDS011;22718;49.494;7.036;2024-03-07T07:28:08;43.95;;;23.10;;
36751;SDS011;22718;49.494;7.036;2024-03-07T07:30:36;41.15;;;21.92;;
36751;SDS011;22718;49.494;7.036;2024-03-07T07:33:02;38.90;;;21.55;;
36751;SDS011;22718;49.494;7.036;2024-03-07T07:35:28;40.95;;;20.98;;
36751;SDS011;22718;49.494;7.036;2024-03-07T07:37:53;38.13;;;21.45;;
36751;SDS011;22718;49.494;7.036;2024-03-07T07:40:21;39.75;;;19.98;;
36751;SDS011;22718;49.494;7.036;2024-03-07T07:42:51;41.47;;;19.35;;
36751;SDS011;22718;49.494;7.036;2024-03-07T07:45:18;41.92;;;20.48;;
36751;SDS011;22718;49.494;7.036;2024-03-07T07:47:47;39.80;;;19.02;;
36751;SDS011;22718;49.494;7.036;2024-03-07T07:50:17;39.95;;;21.83;;
36751;SDS011;22718;49.494;7.036;2024-03-07T07:52:44;39.03;;;19.27;;
36751;SDS011;22718;49.494;7.036;2024-03-07T07:57:59;32.40;;;18.70;;
36751;SDS011;22718;49.494;7.036;2024-03-07T08:05:33;36.42;;;18.80;;
36751;SDS011;22718;49.494;7.036;2024-03-07T08:08:04;32.38;;;18.23;;
36751;SDS011;22718;49.494;7.036;2024-03-07T08:10:31;32.80;;;17.60;;
36751;SDS011;22718;49.494;7.036;2024-03-07T08:13:01;35.40;;;18.48;;
36751;SDS011;22718;49.494;7.036;2024-03-07T08:15:29;36.55;;;17.77;;
36751;SDS011;22718;49.494;7.036;2024-03-07T08:17:56;37.30;;;18.65;;
36751;SDS011;22718;49.494;7.036;2024-03-07T08:20:24;33.00;;;18.27;;
36751;SDS011;22718;49.494;7.036;2024-03-07T08:22:53;31.55;;;18.23;;
36751;SDS011;22718;49.494;7.036;2024-03-07T08:25:21;34.13;;;17.85;;
36751;SDS011;22718;49.494;7.036;2024-03-07T08:27:51;29.08;;;16.00;;
36751;SDS011;22718;49.494;7.036;2024-03-07T08:30:18;33.67;;;18.10;;
36751;SDS011;22718;49.494;7.036;2024-03-07T08:32:46;34.15;;;17.63;;
36751;SDS011;22718;49.494;7.036;2024-03-07T08:35:13;31.48;;;16.55;;
36751;SDS011;22718;49.494;7.036;2024-03-07T08:37:45;37.08;;;19.05;;
36751;SDS011;22718;49.494;7.036;2024-03-07T08:40:18;30.38;;;16.88;;
36751;SDS011;22718;49.494;7.036;2024-03-07T08:42:46;30.77;;;17.60;;
36751;SDS011;22718;49.494;7.036;2024-03-07T08:45:12;33.00;;;18.38;;
36751;SDS011;22718;49.494;7.036;2024-03-07T08:47:42;38.43;;;18.33;;
36751;SDS011;22718;49.494;7.036;2024-03-07T08:50:10;32.58;;;17.13;;
36751;SDS011;22718;49.494;7.036;2024-03-07T08:52:38;27.52;;;16.23;;
36751;SDS011;22718;49.494;7.036;2024-03-07T08:55:05;34.83;;;18.30;;
36751;SDS011;22718;49.494;7.036;2024-03-07T08:57:31;30.45;;;17.58;;
36751;SDS011;22718;49.494;7.036;2024-03-07T08:59:58;30.83;;;17.27;;
36751;SDS011;22718;49.494;7.036;2024-03-07T09:02:25;30.35;;;16.52;;
36751;SDS011;22718;49.494;7.036;2024-03-07T09:04:50;33.40;;;16.95;;
36751;SDS011;22718;49.494;7.036;2024-03-07T09:07:18;29.38;;;15.07;;
36751;SDS011;22718;49.494;7.036;2024-03-07T09:09:45;28.35;;;15.07;;
36751;SDS011;22718;49.494;7.036;2024-03-07T09:12:11;30.50;;;16.13;;
36751;SDS011;22718;49.494;7.036;2024-03-07T09:14:37;32.58;;;17.67;;
36751;SDS011;22718;49.494;7.036;2024-03-07T09:17:03;29.00;;;15.50;;
36751;SDS011;22718;49.494;7.036;2024-03-07T09:19:32;26.25;;;14.63;;
36751;SDS011;22718;49.494;7.036;2024-03-07T09:21:57;28.05;;;15.25;;
36751;SDS011;22718;49.494;7.036;2024-03-07T09:24:23;29.38;;;16.88;;
36751;SDS011;22718;49.494;7.036;2024-03-07T09:26:52;29.35;;;15.77;;
36751;SDS011;22718;49.494;7.036;2024-03-07T09:29:18;26.45;;;14.32;;
36751;SDS011;22718;49.494;7.036;2024-03-07T09:31:50;27.13;;;14.88;;
36751;SDS011;22718;49.494;7.036;2024-03-07T09:34:17;25.92;;;14.63;;
36751;SDS011;22718;49.494;7.036;2024-03-07T09:36:44;30.15;;;14.93;;
36751;SDS011;22718;49.494;7.036;2024-03-07T09:39:09;25.35;;;15.32;;
36751;SDS011;22718;49.494;7.036;2024-03-07T09:41:37;25.90;;;13.23;;
36751;SDS011;22718;49.494;7.036;2024-03-07T09:44:04;28.33;;;13.95;;
36751;SDS011;22718;49.494;7.036;2024-03-07T09:46:30;22.77;;;12.10;;
36751;SDS011;22718;49.494;7.036;2024-03-07T09:48:57;22.52;;;13.40;;
36751;SDS011;22718;49.494;7.036;2024-03-07T09:51:23;23.52;;;13.70;;
36751;SDS011;22718;49.494;7.036;2024-03-07T09:53:50;23.08;;;12.40;;
36751;SDS011;22718;49.494;7.036;2024-03-07T09:56:20;22.25;;;11.98;;
36751;SDS011;22718;49.494;7.036;2024-03-07T09:58:50;23.95;;;13.93;;
36751;SDS011;22718;49.494;7.036;2024-03-07T10:01:19;23.75;;;13.52;;
36751;SDS011;22718;49.494;7.036;2024-03-07T10:03:46;24.05;;;13.48;;
36751;SDS011;22718;49.494;7.036;2024-03-07T10:06:13;25.50;;;14.13;;
36751;SDS011;22718;49.494;7.036;2024-03-07T10:08:40;23.10;;;13.07;;
36751;SDS011;22718;49.494;7.036;2024-03-07T10:11:07;22.48;;;12.02;;
36751;SDS011;22718;49.494;7.036;2024-03-07T10:13:35;22.98;;;12.80;;
36751;SDS011;22718;49.494;7.036;2024-03-07T10:16:01;25.52;;;12.13;;
36751;SDS011;22718;49.494;7.036;2024-03-07T10:18:30;19.90;;;10.93;;
36751;SDS011;22718;49.494;7.036;2024-03-07T10:20:56;22.38;;;12.27;;
36751;SDS011;22718;49.494;7.036;2024-03-07T10:23:22;24.85;;;12.15;;
36751;SDS011;22718;49.494;7.036;2024-03-07T10:25:49;19.02;;;10.75;;
36751;SDS011;22718;49.494;7.036;2024-03-07T10:28:18;23.20;;;11.98;;
36751;SDS011;22718;49.494;7.036;2024-03-07T10:30:49;20.55;;;11.45;;
36751;SDS011;22718;49.494;7.036;2024-03-07T10:33:16;24.02;;;10.75;;
36751;SDS011;22718;49.494;7.036;2024-03-07T10:35:45;19.55;;;11.27;;
36751;SDS011;22718;49.494;7.036;2024-03-07T10:38:14;21.05;;;11.38;;
36751;SDS011;22718;49.494;7.036;2024-03-07T10:40:40;20.55;;;10.75;;
36751;SDS011;22718;49.494;7.036;2024-03-07T10:43:11;16.83;;;10.30;;
36751;SDS011;22718;49.494;7.036;2024-03-07T10:45:46;17.90;;;11.05;;
36751;SDS011;22718;49.494;7.036;2024-03-07T10:48:13;19.45;;;10.82;;
36751;SDS011;22718;49.494;7.036;2024-03-07T10:56:03;21.65;;;9.57;;
36751;SDS011;22718;49.494;7.036;2024-03-07T11:01:32;18.33;;;10.25;;
36751;SDS011;22718;49.494;7.036;2024-03-07T11:04:00;18.10;;;9.88;;
36751;SDS011;22718;49.494;7.036;2024-03-07T11:08:59;20.73;;;10.35;;
36751;SDS011;22718;49.494;7.036;2024-03-07T11:11:29;18.17;;;10.35;;
36751;SDS011;22718;49.494;7.036;2024-03-07T11:13:54;19.45;;;10.38;;
36751;SDS011;22718;49.494;7.036;2024-03-07T11:16:24;17.75;;;9.75;;
36751;SDS011;22718;49.494;7.036;2024-03-07T11:21:47;20.60;;;10.73;;
36751;SDS011;22718;49.494;7.036;2024-03-07T11:24:29;21.27;;;10.35;;
36751;SDS011;22718;49.494;7.036;2024-03-07T11:26:57;19.42;;;9.73;;
36751;SDS011;22718;49.494;7.036;2024-03-07T11:29:43;19.58;;;9.35;;
36751;SDS011;22718;49.494;7.036;2024-03-07T11:34:44;20.48;;;12.10;;
36751;SDS011;22718;49.494;7.036;2024-03-07T11:37:20;18.58;;;9.70;;
36751;SDS011;22718;49.494;7.036;2024-03-07T11:40:08;17.77;;;9.48;;
36751;SDS011;22718;49.494;7.036;2024-03-07T11:42:43;18.40;;;8.77;;
36751;SDS011;22718;49.494;7.036;2024-03-07T11:45:12;15.65;;;8.85;;
36751;SDS011;22718;49.494;7.036;2024-03-07T11:47:49;22.08;;;10.00;;
36751;SDS011;22718;49.494;7.036;2024-03-07T11:50:32;19.55;;;9.77;;
36751;SDS011;22718;49.494;7.036;2024-03-07T11:53:00;19.20;;;9.82;;
36751;SDS011;22718;49.494;7.036;2024-03-07T11:55:27;19.67;;;10.00;;
36751;SDS011;22718;49.494;7.036;2024-03-07T11:57:54;17.40;;;9.52;;
36751;SDS011;22718;49.494;7.036;2024-03-07T12:00:20;17.45;;;9.73;;
36751;SDS011;22718;49.494;7.036;2024-03-07T12:02:49;17.02;;;9.77;;
36751;SDS011;22718;49.494;7.036;2024-03-07T12:05:15;16.75;;;9.07;;
36751;SDS011;22718;49.494;7.036;2024-03-07T12:07:43;19.45;;;9.63;;
36751;SDS011;22718;49.494;7.036;2024-03-07T12:10:09;17.88;;;9.68;;
36751;SDS011;22718;49.494;7.036;2024-03-07T12:12:35;22.98;;;11.55;;
36751;SDS011;22718;49.494;7.036;2024-03-07T12:15:06;19.90;;;9.80;;
36751;SDS011;22718;49.494;7.036;2024-03-07T12:20:14;18.85;;;9.25;;
36751;SDS011;22718;49.494;7.036;2024-03-07T12:22:59;18.17;;;9.38;;
36751;SDS011;22718;49.494;7.036;2024-03-07T12:25:28;32.85;;;9.38;;
36751;SDS011;22718;49.494;7.036;2024-03-07T12:28:05;21.70;;;10.57;;
36751;SDS011;22718;49.494;7.036;2024-03-07T12:30:53;19.38;;;9.25;;
36751;SDS011;22718;49.494;7.036;2024-03-07T12:33:21;16.27;;;8.98;;
36751;SDS011;22718;49.494;7.036;2024-03-07T12:35:50;17.45;;;10.02;;
36751;SDS011;22718;49.494;7.036;2024-03-07T12:41:01;23.15;;;10.02;;
36751;SDS011;22718;49.494;7.036;2024-03-07T12:43:31;25.38;;;10.27;;
36751;SDS011;22718;49.494;7.036;2024-03-07T12:45:57;22.90;;;11.38;;
36751;SDS011;22718;49.494;7.036;2024-03-07T12:48:24;18.35;;;10.25;;
36751;SDS011;22718;49.494;7.036;2024-03-07T12:50:50;22.40;;;11.23;;
36751;SDS011;22718;49.494;7.036;2024-03-07T12:53:23;17.60;;;9.35;;
36751;SDS011;22718;49.494;7.036;2024-03-07T12:55:52;20.38;;;11.23;;
36751;SDS011;22718;49.494;7.036;2024-03-07T12:58:17;20.30;;;10.18;;
36751;SDS011;22718;49.494;7.036;2024-03-07T13:00:55;19.60;;;9.68;;
36751;SDS011;22718;49.494;7.036;2024-03-07T13:03:22;22.23;;;9.68;;
36751;SDS011;22718;49.494;7.036;2024-03-07T13:05:53;20.90;;;10.05;;
36751;SDS011;22718;49.494;7.036;2024-03-07T13:08:20;20.88;;;10.73;;
36751;SDS011;22718;49.494;7.036;2024-03-07T13:10:50;20.88;;;10.50;;
36751;SDS011;22718;49.494;7.036;2024-03-07T13:13:16;19.25;;;10.50;;
36751;SDS011;22718;49.494;7.036;2024-03-07T13:15:41;19.48;;;10.00;;
36751;SDS011;22718;49.494;7.036;2024-03-07T13:18:12;21.70;;;10.57;;
36751;SDS011;22718;49.494;7.036;2024-03-07T13:20:38;21.52;;;10.63;;
36751;SDS011;22718;49.494;7.036;2024-03-07T13:23:04;19.80;;;11.05;;
36751;SDS011;22718;49.494;7.036;2024-03-07T13:25:33;21.38;;;11.23;;
36751;SDS011;22718;49.494;7.036;2024-03-07T13:28:08;16.60;;;9.95;;
36751;SDS011;22718;49.494;7.036;2024-03-07T13:30:38;18.67;;;10.73;;
36751;SDS011;22718;49.494;7.036;2024-03-07T13:35:45;18.02;;;9.38;;
36751;SDS011;22718;49.494;7.036;2024-03-07T13:38:16;19.02;;;10.25;;
36751;SDS011;22718;49.494;7.036;2024-03-07T13:41:34;17.52;;;9.35;;
36751;SDS011;22718;49.494;7.036;2024-03-07T13:44:30;19.60;;;9.90;;
36751;SDS011;22718;49.494;7.036;2024-03-07T13:47:06;23.73;;;12.55;;
36751;SDS011;22718;49.494;7.036;2024-03-07T13:49:55;19.85;;;11.48;;
36751;SDS011;22718;49.494;7.036;2024-03-07T13:52:21;19.63;;;11.27;;
36751;SDS011;22718;49.494;7.036;2024-03-07T13:54:47;23.60;;;12.02;;
36751;SDS011;22718;49.494;7.036;2024-03-07T13:57:21;19.35;;;10.25;;
36751;SDS011;22718;49.494;7.036;2024-03-07T14:03:19;20.65;;;11.20;;
36751;SDS011;22718;49.494;7.036;2024-03-07T14:15:54;22.90;;;11.93;;
36751;SDS011;22718;49.494;7.036;2024-03-07T14:18:55;20.73;;;11.52;;
36751;SDS011;22718;49.494;7.036;2024-03-07T14:27:35;22.70;;;12.23;;
36751;SDS011;22718;49.494;7.036;2024-03-07T14:44:28;26.63;;;12.05;;
36751;SDS011;22718;49.494;7.036;2024-03-07T14:49:31;27.58;;;13.20;;
36751;SDS011;22718;49.494;7.036;2024-03-07T14:51:59;22.30;;;11.77;;
36751;SDS011;22718;49.494;7.036;2024-03-07T14:54:26;21.73;;;11.55;;
36751;SDS011;22718;49.494;7.036;2024-03-07T14:56:52;23.02;;;13.23;;
36751;SDS011;22718;49.494;7.036;2024-03-07T14:59:17;23.48;;;12.98;;
36751;SDS011;22718;49.494;7.036;2024-03-07T15:01:43;21.70;;;12.15;;
36751;SDS011;22718;49.494;7.036;2024-03-07T15:04:09;27.77;;;13.35;;
36751;SDS011;22718;49.494;7.036;2024-03-07T15:06:44;23.67;;;13.75;;
36751;SDS011;22718;49.494;7.036;2024-03-07T15:09:44;25.80;;;12.52;;
36751;SDS011;22718;49.494;7.036;2024-03-07T15:12:38;24.35;;;13.38;;
36751;SDS011;22718;49.494;7.036;2024-03-07T15:15:49;27.65;;;13.82;;
36751;SDS011;22718;49.494;7.036;2024-03-07T15:21:27;31.27;;;14.10;;
36751;SDS011;22718;49.494;7.036;2024-03-07T15:33:51;33.55;;;16.73;;
36751;SDS011;22718;49.494;7.036;2024-03-07T15:46:47;26.85;;;13.45;;
36751;SDS011;22718;49.494;7.036;2024-03-07T15:49:17;31.50;;;14.75;;
36751;SDS011;22718;49.494;7.036;2024-03-07T15:52:01;26.20;;;14.48;;
36751;SDS011;22718;49.494;7.036;2024-03-07T15:54:29;29.83;;;15.00;;
36751;SDS011;22718;49.494;7.036;2024-03-07T16:00:07;27.10;;;14.20;;
36751;SDS011;22718;49.494;7.036;2024-03-07T16:03:19;28.70;;;13.65;;
36751;SDS011;22718;49.494;7.036;2024-03-07T16:05:56;25.73;;;13.70;;
36751;SDS011;22718;49.494;7.036;2024-03-07T16:08:56;26.67;;;12.65;;
36751;SDS011;22718;49.494;7.036;2024-03-07T16:18:02;24.73;;;12.40;;
36751;SDS011;22718;49.494;7.036;2024-03-07T18:41:53;27.17;;;13.77;;
36751;SDS011;22718;49.494;7.036;2024-03-07T18:56:34;26.30;;;14.00;;